createdAt,value
2018-02-03T00:00:50.198Z,25.30
2018-02-03T00:03:17.783Z,27.40
2018-02-03T00:05:45.334Z,26.40
2018-02-03T00:08:12.923Z,27.23
2018-02-03T00:10:40.530Z,30.93
2018-02-03T00:13:08.091Z,24.63
2018-02-03T00:15:35.666Z,32.00
2018-02-03T00:18:03.211Z,24.73
2018-02-03T00:20:30.787Z,29.50
2018-02-03T00:22:58.397Z,28.70
2018-02-03T00:25:25.961Z,33.07
2018-02-03T00:27:53.502Z,29.17
2018-02-03T00:30:21.054Z,35.50
2018-02-03T00:32:48.608Z,34.73
2018-02-03T00:35:16.201Z,31.57
2018-02-03T00:37:43.746Z,29.10
2018-02-03T00:40:11.325Z,24.87
2018-02-03T00:42:38.894Z,29.10
2018-02-03T00:45:06.467Z,27.33
2018-02-03T00:47:34.053Z,30.20
2018-02-03T00:50:01.653Z,22.27
2018-02-03T00:52:29.230Z,27.63
2018-02-03T00:54:56.781Z,32.20
2018-02-03T00:57:24.454Z,24.93
2018-02-03T00:59:52.022Z,28.13
2018-02-03T01:02:19.640Z,25.03
2018-02-03T01:04:47.226Z,25.07
2018-02-03T01:07:14.778Z,29.90
2018-02-03T01:09:42.362Z,25.77
2018-02-03T01:12:09.906Z,31.27
2018-02-03T01:14:37.502Z,22.57
2018-02-03T01:17:05.053Z,24.20
2018-02-03T01:19:32.603Z,25.87
2018-02-03T01:22:00.153Z,29.80
2018-02-03T01:24:27.701Z,27.67
2018-02-03T01:26:55.290Z,24.80
2018-02-03T01:29:23.021Z,27.97
2018-02-03T01:31:51.633Z,27.17
2018-02-03T01:34:19.241Z,33.67
2018-02-03T01:36:46.786Z,25.00
2018-02-03T01:39:14.330Z,23.60
2018-02-03T01:41:41.871Z,29.87
2018-02-03T01:44:09.602Z,35.70
2018-02-03T01:46:37.162Z,26.87
2018-02-03T01:49:04.712Z,28.73
2018-02-03T01:51:32.262Z,28.03
2018-02-03T01:53:59.810Z,26.53
2018-02-03T01:56:27.382Z,34.70
2018-02-03T01:58:55.004Z,32.60
2018-02-03T02:01:22.763Z,23.83
2018-02-03T02:03:50.306Z,29.80
2018-02-03T02:06:17.886Z,34.90
2018-02-03T02:08:45.525Z,28.83
2018-02-03T02:11:13.074Z,31.30
2018-02-03T02:13:40.649Z,27.40
2018-02-03T02:16:08.234Z,31.67
2018-02-03T02:18:35.782Z,30.53
2018-02-03T02:21:03.330Z,27.73
2018-02-03T02:23:30.914Z,40.33
2018-02-03T02:25:58.578Z,29.57
2018-02-03T02:28:26.142Z,31.57
2018-02-03T02:30:53.908Z,27.00
2018-02-03T02:33:21.468Z,26.43
2018-02-03T02:35:49.007Z,32.73
2018-02-03T02:38:16.592Z,27.50
2018-02-03T02:40:44.130Z,34.10
2018-02-03T02:43:11.715Z,33.77
2018-02-03T02:45:39.370Z,36.80
2018-02-03T02:48:06.910Z,30.60
2018-02-03T02:50:34.464Z,35.90
2018-02-03T02:53:02.430Z,32.40
2018-02-03T02:55:30.018Z,35.47
2018-02-03T02:57:57.562Z,30.90
2018-02-03T03:00:25.142Z,33.93
2018-02-03T03:02:52.687Z,39.60
2018-02-03T03:05:20.237Z,38.40
2018-02-03T03:07:47.785Z,35.67
2018-02-03T03:10:15.363Z,32.10
2018-02-03T03:12:43.124Z,35.87
2018-02-03T03:15:10.661Z,34.97
2018-02-03T03:17:38.214Z,40.67
2018-02-03T03:20:05.762Z,38.40
2018-02-03T03:22:33.317Z,39.67
2018-02-03T03:25:00.911Z,40.87
2018-02-03T03:27:28.459Z,34.60
2018-02-03T03:29:56.355Z,35.77
2018-02-03T03:32:23.909Z,37.80
2018-02-03T03:34:51.610Z,33.57
2018-02-03T03:37:19.145Z,38.50
2018-02-03T03:39:46.692Z,33.70
2018-02-03T03:42:14.229Z,37.80
2018-02-03T03:44:41.770Z,36.97
2018-02-03T03:47:09.899Z,35.57
2018-02-03T03:49:37.591Z,37.10
2018-02-03T03:52:05.259Z,39.10
2018-02-03T03:54:32.802Z,42.13
2018-02-03T03:57:00.342Z,34.00
2018-02-03T03:59:27.895Z,40.07
2018-02-03T04:01:55.514Z,37.37
2018-02-03T04:04:23.053Z,35.30
2018-02-03T04:06:50.722Z,39.90
2018-02-03T04:09:18.514Z,36.90
2018-02-03T04:11:46.053Z,34.90
2018-02-03T04:14:13.631Z,35.40
2018-02-03T04:16:41.173Z,34.37
2018-02-03T04:19:08.757Z,33.53
2018-02-03T04:21:36.350Z,38.50
2018-02-03T04:24:04.618Z,41.53
2018-02-03T04:26:32.161Z,37.67
2018-02-03T04:28:59.742Z,32.10
2018-02-03T04:31:27.343Z,30.60
2018-02-03T04:33:54.902Z,27.70
2018-02-03T04:36:22.483Z,34.03
2018-02-03T04:38:50.025Z,42.23
2018-02-03T04:41:17.599Z,30.30
2018-02-03T04:43:45.219Z,34.27
2018-02-03T04:46:12.765Z,38.50
2018-02-03T04:48:40.340Z,32.77
2018-02-03T04:51:07.928Z,29.90
2018-02-03T04:53:35.596Z,34.27
2018-02-03T04:56:03.258Z,37.50
2018-02-03T04:58:30.802Z,35.40
2018-02-03T05:00:58.426Z,42.77
2018-02-03T05:03:26.035Z,46.03
2018-02-03T05:05:53.574Z,36.23
2018-02-03T05:08:21.156Z,40.80
2018-02-03T05:10:48.703Z,35.97
2018-02-03T05:13:16.264Z,36.30
2018-02-03T05:15:43.814Z,37.80
2018-02-03T05:18:11.354Z,29.37
2018-02-03T05:20:38.968Z,40.93
2018-02-03T05:23:06.506Z,39.70
2018-02-03T05:25:34.099Z,38.60
2018-02-03T05:28:01.641Z,39.40
2018-02-03T05:30:29.182Z,43.33
2018-02-03T05:32:57.750Z,42.17
2018-02-03T05:35:25.290Z,40.40
2018-02-03T05:37:52.834Z,36.47
2018-02-03T05:40:20.548Z,40.67
2018-02-03T05:42:48.249Z,29.57
2018-02-03T05:45:16.258Z,29.73
2018-02-03T05:47:43.811Z,36.17
2018-02-03T05:50:11.358Z,32.87
2018-02-03T05:52:38.957Z,29.20
2018-02-03T05:55:06.554Z,31.03
2018-02-03T05:57:34.491Z,29.27
2018-02-03T06:00:02.034Z,31.83
2018-02-03T06:02:29.638Z,28.77
2018-02-03T06:04:57.186Z,31.50
2018-02-03T06:07:24.725Z,27.23
2018-02-03T06:09:52.275Z,26.90
2018-02-03T06:12:19.879Z,27.40
2018-02-03T06:14:47.482Z,27.87
2018-02-03T06:17:15.026Z,32.17
2018-02-03T06:19:42.609Z,26.30
2018-02-03T06:22:10.185Z,26.60
2018-02-03T06:24:37.757Z,28.17
2018-02-03T06:27:05.351Z,34.87
2018-02-03T06:29:32.885Z,30.43
2018-02-03T06:32:00.470Z,36.13
2018-02-03T06:34:28.016Z,29.40
2018-02-03T06:36:55.590Z,26.63
2018-02-03T06:39:23.284Z,32.73
2018-02-03T06:41:50.864Z,29.60
2018-02-03T06:44:18.401Z,32.03
2018-02-03T06:46:45.982Z,35.70
2018-02-03T06:49:13.607Z,31.80
2018-02-03T06:51:41.150Z,24.57
2018-02-03T06:54:08.744Z,29.97
2018-02-03T06:56:37.114Z,35.83
2018-02-03T06:59:04.883Z,29.90
2018-02-03T07:01:32.471Z,32.33
2018-02-03T07:04:00.025Z,33.50
2018-02-03T07:06:27.570Z,33.57
2018-02-03T07:08:55.869Z,30.53
2018-02-03T07:11:23.479Z,30.67
2018-02-03T07:13:51.022Z,27.20
2018-02-03T07:16:18.615Z,32.53
2018-02-03T07:18:46.163Z,33.50
2018-02-03T07:21:13.754Z,37.28
2018-02-03T07:23:41.306Z,56.93
2018-02-03T07:26:08.858Z,42.70
2018-02-03T07:28:36.395Z,41.37
2018-02-03T07:31:03.945Z,32.30
2018-02-03T07:33:31.547Z,31.00
2018-02-03T07:35:59.398Z,34.10
2018-02-03T07:38:26.942Z,31.70
2018-02-03T07:40:54.523Z,30.07
2018-02-03T07:43:22.191Z,31.30
2018-02-03T07:45:49.808Z,37.53
2018-02-03T07:48:17.406Z,29.83
2018-02-03T07:50:45.350Z,35.30
2018-02-03T07:53:13.080Z,37.10
2018-02-03T07:55:40.707Z,33.23
2018-02-03T07:58:08.260Z,38.47
2018-02-03T08:00:35.803Z,32.40
2018-02-03T08:03:03.347Z,42.27
2018-02-03T08:05:30.929Z,33.40
2018-02-03T08:07:58.475Z,36.50
2018-02-03T08:10:26.024Z,33.60
2018-02-03T08:12:53.811Z,30.90
2018-02-03T08:15:21.361Z,28.63
2018-02-03T08:17:48.899Z,29.07
2018-02-03T08:20:16.446Z,34.07
2018-02-03T08:22:44.040Z,28.23
2018-02-03T08:25:11.639Z,23.10
2018-02-03T08:27:39.305Z,26.80
2018-02-03T08:30:06.869Z,26.00
2018-02-03T08:32:34.410Z,26.30
2018-02-03T08:35:01.953Z,23.70
2018-02-03T08:37:29.537Z,25.33
2018-02-03T08:39:57.069Z,21.07
2018-02-03T08:42:24.606Z,27.03
2018-02-03T08:44:52.147Z,24.90
2018-02-03T08:47:19.835Z,21.63
2018-02-03T08:49:47.374Z,30.07
2018-02-03T08:52:14.914Z,28.03
2018-02-03T08:54:42.466Z,26.77
2018-02-03T08:57:10.005Z,29.87
2018-02-03T08:59:37.584Z,26.60
2018-02-03T09:02:05.123Z,30.40
2018-02-03T09:04:32.672Z,19.90
2018-02-03T09:07:00.261Z,23.07
2018-02-03T09:09:28.060Z,27.30
2018-02-03T09:12:05.417Z,24.40
2018-02-03T09:14:32.995Z,17.87
2018-02-03T09:17:00.540Z,15.63
2018-02-03T09:19:28.081Z,16.30
2018-02-03T09:21:55.617Z,14.50
2018-02-03T09:24:23.239Z,11.23
2018-02-03T09:26:50.779Z,10.90
2018-02-03T09:29:18.357Z,12.73
2018-02-03T09:31:45.931Z,11.40
2018-02-03T09:34:13.478Z,11.17
2018-02-03T09:36:41.049Z,10.80
2018-02-03T09:39:08.584Z,14.00
2018-02-03T09:41:36.474Z,5.43
2018-02-03T09:44:04.006Z,8.43
2018-02-03T09:46:31.557Z,11.77
2018-02-03T09:48:59.089Z,9.03
2018-02-03T09:51:26.814Z,11.70
2018-02-03T09:53:54.353Z,13.10
2018-02-03T09:56:21.946Z,16.70
2018-02-03T09:58:49.543Z,16.30
2018-02-03T10:01:17.434Z,13.73
2018-02-03T10:03:45.156Z,12.23
2018-02-03T10:06:12.695Z,13.40
2018-02-03T10:08:40.230Z,11.83
2018-02-03T10:11:07.767Z,19.23
2018-02-03T10:13:35.346Z,19.67
2018-02-03T10:16:02.932Z,16.47
2018-02-03T10:18:31.081Z,13.10
2018-02-03T10:20:58.754Z,10.87
2018-02-03T10:23:26.310Z,12.00
2018-02-03T10:25:53.846Z,11.77
2018-02-03T10:28:21.400Z,10.43
2018-02-03T10:30:48.934Z,10.23
2018-02-03T10:33:16.470Z,9.77
2018-02-03T10:35:44.058Z,11.10
2018-02-03T10:38:11.660Z,10.73
2018-02-03T10:40:39.193Z,9.50
2018-02-03T10:43:06.757Z,9.90
2018-02-03T10:45:34.292Z,9.03
2018-02-03T10:48:01.882Z,12.27
2018-02-03T10:50:29.418Z,7.13
2018-02-03T10:52:57.010Z,8.53
2018-02-03T10:55:24.546Z,7.60
2018-02-03T10:57:52.106Z,8.17
2018-02-03T11:00:19.689Z,9.43
2018-02-03T11:02:47.218Z,9.67
2018-02-03T11:05:14.786Z,8.97
2018-02-03T11:07:42.362Z,8.50
2018-02-03T11:10:09.935Z,9.00
2018-02-03T11:12:37.469Z,8.90
2018-02-03T11:15:05.034Z,8.07
2018-02-03T11:17:32.565Z,9.53
2018-02-03T11:20:00.222Z,10.40
2018-02-03T11:22:27.758Z,13.33
2018-02-03T11:24:55.542Z,11.43
2018-02-03T11:27:23.081Z,13.20
2018-02-03T11:29:50.670Z,10.03
2018-02-03T11:32:18.230Z,11.60
2018-02-03T11:34:45.868Z,13.07
2018-02-03T11:37:13.632Z,10.60
2018-02-03T11:39:41.246Z,14.37
2018-02-03T11:42:08.826Z,13.20
2018-02-03T11:44:37.277Z,16.23
2018-02-03T11:47:04.894Z,12.83
2018-02-03T11:49:32.433Z,13.70
2018-02-03T11:51:59.972Z,10.93
2018-02-03T11:54:27.632Z,14.03
2018-02-03T11:56:55.231Z,14.67
2018-02-03T11:59:22.774Z,12.67
2018-02-03T12:01:50.389Z,13.67
2018-02-03T12:04:18.050Z,10.77
2018-02-03T12:06:45.608Z,11.00
2018-02-03T12:09:13.150Z,10.10
2018-02-03T12:11:40.738Z,10.17
2018-02-03T12:14:08.446Z,11.67
2018-02-03T12:16:35.983Z,9.50
2018-02-03T12:19:03.526Z,11.80
2018-02-03T12:21:31.083Z,10.83
2018-02-03T12:23:58.622Z,16.70
2018-02-03T12:26:26.203Z,17.60
2018-02-03T12:28:53.974Z,15.13
2018-02-03T12:31:21.510Z,15.03
2018-02-03T12:33:49.050Z,15.97
2018-02-03T12:36:16.591Z,17.13
2018-02-03T12:38:45.086Z,16.50
2018-02-03T12:41:12.628Z,17.10
2018-02-03T12:43:40.169Z,14.17
2018-02-03T12:46:07.770Z,17.20
2018-02-03T12:48:35.377Z,22.70
2018-02-03T12:51:04.028Z,26.47
2018-02-03T12:53:31.590Z,53.17
2018-02-03T12:55:59.285Z,34.13
2018-02-03T12:58:26.843Z,14.57
2018-02-03T13:00:54.391Z,13.30
2018-02-03T13:03:21.938Z,13.47
2018-02-03T13:05:49.531Z,13.03
2018-02-03T13:08:17.071Z,16.93
2018-02-03T13:10:44.622Z,17.17
2018-02-03T13:13:12.170Z,13.00
2018-02-03T13:15:39.870Z,15.17
2018-02-03T13:18:07.459Z,14.03
2018-02-03T13:20:35.001Z,14.23
2018-02-03T13:23:02.618Z,9.87
2018-02-03T13:25:30.158Z,7.30
2018-02-03T13:27:57.939Z,10.80
2018-02-03T13:30:25.522Z,11.30
2018-02-03T13:32:53.066Z,10.80
2018-02-03T13:35:20.606Z,12.70
2018-02-03T13:37:48.146Z,11.90
2018-02-03T13:40:15.694Z,12.93
2018-02-03T13:42:43.458Z,12.87
2018-02-03T13:45:11.005Z,11.00
2018-02-03T13:47:38.561Z,13.30
2018-02-03T13:50:06.138Z,14.63
2018-02-03T13:52:33.690Z,12.27
2018-02-03T13:55:01.259Z,19.03
2018-02-03T13:57:28.911Z,10.93
2018-02-03T13:59:56.458Z,12.97
2018-02-03T14:02:24.012Z,18.57
2018-02-03T14:04:51.571Z,15.53
2018-02-03T14:07:19.126Z,13.03
2018-02-03T14:09:46.718Z,12.27
2018-02-03T14:12:14.270Z,14.20
2018-02-03T14:14:41.823Z,12.87
2018-02-03T14:17:09.409Z,13.30
2018-02-03T14:19:37.282Z,18.13
2018-02-03T14:22:04.851Z,16.17
2018-02-03T14:24:37.895Z,15.80
2018-02-03T14:27:05.543Z,15.50
2018-02-03T14:29:33.687Z,14.27
2018-02-03T14:32:01.288Z,15.73
2018-02-03T14:34:28.843Z,13.93
2018-02-03T14:36:56.419Z,13.67
2018-02-03T14:39:23.964Z,12.27
2018-02-03T14:41:51.739Z,14.33
2018-02-03T14:44:19.290Z,15.93
2018-02-03T14:46:46.838Z,23.33
2018-02-03T14:49:14.406Z,13.17
2018-02-03T14:51:41.948Z,17.47
2018-02-03T14:54:09.533Z,15.17
2018-02-03T14:56:37.080Z,15.10
2018-02-03T14:59:04.866Z,14.60
2018-02-03T15:01:32.449Z,16.43
2018-02-03T15:03:59.991Z,13.87
2018-02-03T15:06:27.585Z,16.60
2018-02-03T15:08:55.142Z,14.83
2018-02-03T15:11:22.764Z,12.80
2018-02-03T15:13:50.323Z,15.33
2018-02-03T15:16:17.884Z,12.83
2018-02-03T15:18:45.436Z,14.67
2018-02-03T15:21:12.994Z,17.43
2018-02-03T15:23:40.566Z,11.93
2018-02-03T15:26:08.147Z,17.87
2018-02-03T15:28:35.688Z,12.50
2018-02-03T15:31:03.284Z,14.70
2018-02-03T15:33:30.970Z,24.00
2018-02-03T15:35:58.514Z,14.43
2018-02-03T15:38:26.065Z,25.40
2018-02-03T15:40:53.611Z,29.27
2018-02-03T15:43:21.165Z,17.07
2018-02-03T15:45:48.713Z,15.83
2018-02-03T15:48:16.250Z,17.57
2018-02-03T15:50:43.790Z,18.87
2018-02-03T15:53:11.401Z,15.97
2018-02-03T15:55:39.090Z,16.27
2018-02-03T15:58:06.626Z,11.70
2018-02-03T16:00:34.166Z,14.80
2018-02-03T16:03:01.718Z,15.37
2018-02-03T16:05:29.301Z,12.27
2018-02-03T16:07:56.830Z,14.20
2018-02-03T16:10:24.370Z,11.33
2018-02-03T16:12:52.049Z,12.53
2018-02-03T16:15:19.726Z,12.53
2018-02-03T16:17:47.269Z,11.23
2018-02-03T16:20:14.814Z,17.33
2018-02-03T16:22:42.462Z,15.60
2018-02-03T16:25:10.004Z,14.90
2018-02-03T16:27:37.581Z,16.87
2018-02-03T16:30:05.122Z,15.27
2018-02-03T16:32:32.667Z,12.83
2018-02-03T16:35:00.215Z,15.03
2018-02-03T16:37:27.793Z,17.93
2018-02-03T16:39:55.391Z,17.77
2018-02-03T16:42:22.934Z,16.93
2018-02-03T16:44:50.507Z,14.30
2018-02-03T16:47:18.099Z,15.93
2018-02-03T16:49:45.643Z,17.00
2018-02-03T16:52:13.197Z,17.60
2018-02-03T16:54:40.746Z,16.47
2018-02-03T16:57:08.382Z,20.47
2018-02-03T16:59:35.969Z,16.07
2018-02-03T17:02:03.515Z,14.27
2018-02-03T17:04:31.066Z,15.03
2018-02-03T17:06:58.879Z,15.77
2018-02-03T17:09:26.423Z,16.17
2018-02-03T17:11:53.973Z,13.37
2018-02-03T17:14:21.590Z,12.77
2018-02-03T17:16:49.144Z,13.53
2018-02-03T17:19:16.755Z,12.37
2018-02-03T17:21:44.322Z,11.90
2018-02-03T17:24:11.866Z,13.50
2018-02-03T17:26:39.407Z,12.63
2018-02-03T17:29:07.006Z,16.37
2018-02-03T17:31:34.551Z,10.50
2018-02-03T17:34:02.134Z,14.80
2018-02-03T17:36:35.351Z,14.93
2018-02-03T17:39:22.187Z,13.10
2018-02-03T17:41:49.776Z,10.63
2018-02-03T17:44:17.526Z,10.90
2018-02-03T17:46:50.434Z,13.73
2018-02-03T17:49:18.006Z,13.77
2018-02-03T17:51:45.542Z,10.63
2018-02-03T17:54:13.086Z,13.13
2018-02-03T17:56:46.261Z,16.17
2018-02-03T17:59:13.802Z,17.87
2018-02-03T18:01:41.520Z,18.63
2018-02-03T18:04:09.070Z,16.33
2018-02-03T18:06:42.338Z,19.63
2018-02-03T18:09:09.964Z,14.20
2018-02-03T18:11:37.534Z,16.73
2018-02-03T18:14:05.073Z,15.33
2018-02-03T18:16:32.808Z,18.40
2018-02-03T18:19:00.658Z,20.70
2018-02-03T18:21:28.278Z,16.87
2018-02-03T18:23:57.295Z,11.60
2018-02-03T18:26:25.521Z,15.13
2018-02-03T18:28:53.746Z,16.83
2018-02-03T18:31:22.183Z,14.97
2018-02-03T18:33:50.086Z,15.77
2018-02-03T18:36:17.634Z,15.80
2018-02-03T18:38:45.297Z,17.80
2018-02-03T18:41:12.863Z,14.13
2018-02-03T18:43:40.407Z,14.50
2018-02-03T18:46:07.979Z,13.37
2018-02-03T18:48:35.522Z,14.17
2018-02-03T18:51:03.075Z,14.70
2018-02-03T18:53:30.667Z,14.43
2018-02-03T18:55:58.209Z,14.30
2018-02-03T18:58:25.786Z,14.37
2018-02-03T19:00:53.343Z,11.13
2018-02-03T19:03:20.906Z,16.07
2018-02-03T19:05:48.467Z,11.77
2018-02-03T19:08:16.010Z,10.80
2018-02-03T19:10:43.591Z,15.97
2018-02-03T19:13:11.296Z,14.90
2018-02-03T19:15:38.994Z,16.07
2018-02-03T19:18:06.537Z,18.23
2018-02-03T19:20:34.083Z,15.37
2018-02-03T19:23:01.701Z,17.87
2018-02-03T19:25:29.245Z,14.63
2018-02-03T19:27:56.918Z,16.90
2018-02-03T19:30:24.454Z,25.33
2018-02-03T19:32:52.214Z,17.80
2018-02-03T19:35:19.761Z,13.07
2018-02-03T19:37:47.305Z,14.07
2018-02-03T19:40:14.922Z,13.93
2018-02-03T19:42:42.472Z,14.90
2018-02-03T19:45:10.117Z,17.73
2018-02-03T19:47:37.709Z,16.07
2018-02-03T19:50:05.250Z,15.13
2018-02-03T19:52:32.900Z,25.00
2018-02-03T19:55:00.447Z,18.40
2018-02-03T19:57:28.038Z,19.33
2018-02-03T19:59:55.590Z,25.93
2018-02-03T20:02:23.738Z,24.53
2018-02-03T20:04:51.279Z,23.40
2018-02-03T20:07:18.830Z,20.67
2018-02-03T20:09:46.451Z,20.55
2018-02-03T20:12:14.042Z,21.23
2018-02-03T20:14:41.581Z,19.30
2018-02-03T20:17:09.138Z,18.67
2018-02-03T20:19:36.732Z,17.75
2018-02-03T20:22:04.379Z,19.02
2018-02-03T20:24:31.970Z,21.30
2018-02-03T20:26:59.522Z,17.55
2018-02-03T20:29:27.078Z,19.13
2018-02-03T20:31:54.670Z,18.52
2018-02-03T20:34:22.266Z,21.20
2018-02-03T20:36:49.856Z,17.70
2018-02-03T20:39:17.472Z,17.03
2018-02-03T20:41:45.010Z,19.87
2018-02-03T20:44:12.597Z,19.47
2018-02-03T20:46:40.290Z,23.43
2018-02-03T20:49:07.838Z,20.70
2018-02-03T20:51:35.513Z,18.67
2018-02-03T20:54:03.077Z,17.23
2018-02-03T20:56:30.622Z,20.70
2018-02-03T20:58:58.224Z,19.23
2018-02-03T21:01:25.782Z,14.87
2018-02-03T21:03:53.415Z,16.20
2018-02-03T21:06:21.083Z,18.30
2018-02-03T21:08:48.679Z,20.60
2018-02-03T21:11:16.225Z,15.97
2018-02-03T21:13:43.780Z,15.10
2018-02-03T21:16:11.326Z,26.43
2018-02-03T21:18:38.978Z,26.83
2018-02-03T21:21:06.706Z,22.07
2018-02-03T21:23:34.272Z,24.08
2018-02-03T21:26:01.878Z,23.60
2018-02-03T21:28:29.422Z,28.50
2018-02-03T21:30:57.098Z,37.13
2018-02-03T21:33:24.645Z,31.80
2018-02-03T21:35:52.225Z,32.07
2018-02-03T21:38:19.770Z,22.37
2018-02-03T21:40:47.430Z,20.98
2018-02-03T21:43:14.970Z,16.83
2018-02-03T21:45:42.662Z,17.33
2018-02-03T21:48:10.211Z,23.50
2018-02-03T21:50:37.814Z,28.07
2018-02-03T21:53:05.402Z,25.77
2018-02-03T21:55:33.032Z,23.40
2018-02-03T21:58:00.602Z,15.83
2018-02-03T22:00:28.146Z,16.00
2018-02-03T22:02:55.975Z,16.20
2018-02-03T22:05:23.528Z,17.63
2018-02-03T22:07:51.103Z,15.60
2018-02-03T22:10:18.650Z,15.40
2018-02-03T22:12:46.246Z,15.98
2018-02-03T22:15:13.795Z,14.33
2018-02-03T22:17:41.518Z,13.53
2018-02-03T22:20:09.163Z,14.17
2018-02-03T22:22:36.895Z,18.10
2018-02-03T22:25:04.556Z,17.57
2018-02-03T22:27:32.091Z,15.70
2018-02-03T22:29:59.634Z,17.50
2018-02-03T22:32:27.201Z,16.70
2018-02-03T22:34:54.803Z,15.13
2018-02-03T22:37:22.502Z,13.37
2018-02-03T22:39:50.201Z,14.93
2018-02-03T22:42:17.786Z,15.93
2018-02-03T22:44:45.454Z,19.50
2018-02-03T22:47:13.114Z,18.90
2018-02-03T22:49:40.659Z,14.40
2018-02-03T22:52:08.210Z,26.90
2018-02-03T22:54:35.802Z,19.40
2018-02-03T22:57:03.627Z,16.07
2018-02-03T22:59:31.170Z,21.50
2018-02-03T23:01:58.716Z,15.77
2018-02-03T23:04:26.270Z,22.87
2018-02-03T23:06:53.826Z,18.57
2018-02-03T23:09:21.467Z,17.90
2018-02-03T23:11:49.127Z,22.40
2018-02-03T23:14:16.707Z,20.70
2018-02-03T23:16:44.384Z,22.50
2018-02-03T23:19:12.016Z,19.67
2018-02-03T23:21:39.574Z,18.50
2018-02-03T23:24:07.146Z,22.60
2018-02-03T23:26:34.722Z,18.70
2018-02-03T23:29:02.469Z,26.33
2018-02-03T23:31:30.021Z,22.37
2018-02-03T23:33:57.765Z,24.43
2018-02-03T23:36:25.487Z,20.37
2018-02-03T23:38:53.118Z,23.33
2018-02-03T23:41:20.791Z,25.33
2018-02-03T23:43:48.350Z,23.15
2018-02-03T23:46:15.934Z,20.07
2018-02-03T23:48:43.534Z,26.05
2018-02-03T23:51:11.181Z,25.23
2018-02-03T23:53:38.743Z,20.43
2018-02-03T23:56:06.319Z,19.13
2018-02-03T23:58:35.845Z,22.43
